sensor_id;sensor_type;location;lat;lon;timestamp;P1;durP1;ratioP1;P2;durP2;ratioP2
68718;SDS011;55696;52.138;5.444;2023-09-08T00:02:24;11.00;;;7.85;;
68718;SDS011;55696;52.138;5.444;2023-09-08T00:04:51;12.30;;;8.50;;
68718;SDS011;55696;52.138;5.444;2023-09-08T00:07:19;11.77;;;7.60;;
68718;SDS011;55696;52.138;5.444;2023-09-08T00:09:45;14.10;;;7.88;;
68718;SDS011;55696;52.138;5.444;2023-09-08T00:12:12;12.70;;;7.85;;
68718;SDS011;55696;52.138;5.444;2023-09-08T00:14:40;10.85;;;8.13;;
68718;SDS011;55696;52.138;5.444;2023-09-08T00:17:07;11.33;;;8.23;;
68718;SDS011;55696;52.138;5.444;2023-09-08T00:19:33;13.15;;;8.35;;
68718;SDS011;55696;52.138;5.444;2023-09-08T00:22:00;10.77;;;7.57;;
68718;SDS011;55696;52.138;5.444;2023-09-08T00:24:28;12.13;;;8.70;;
68718;SDS011;55696;52.138;5.444;2023-09-08T00:26:55;13.45;;;8.55;;
68718;SDS011;55696;52.138;5.444;2023-09-08T00:29:22;14.60;;;8.07;;
68718;SDS011;55696;52.138;5.444;2023-09-08T00:31:49;13.90;;;8.85;;
68718;SDS011;55696;52.138;5.444;2023-09-08T00:34:15;12.95;;;9.07;;
68718;SDS011;55696;52.138;5.444;2023-09-08T00:36:42;13.20;;;8.85;;
68718;SDS011;55696;52.138;5.444;2023-09-08T00:39:09;13.18;;;9.50;;
68718;SDS011;55696;52.138;5.444;2023-09-08T00:41:36;11.67;;;8.20;;
68718;SDS011;55696;52.138;5.444;2023-09-08T00:44:03;12.38;;;9.52;;
68718;SDS011;55696;52.138;5.444;2023-09-08T00:46:30;11.07;;;8.75;;
68718;SDS011;55696;52.138;5.444;2023-09-08T00:48:57;12.90;;;9.40;;
68718;SDS011;55696;52.138;5.444;2023-09-08T00:51:24;13.73;;;9.35;;
68718;SDS011;55696;52.138;5.444;2023-09-08T00:53:52;12.93;;;9.23;;
68718;SDS011;55696;52.138;5.444;2023-09-08T00:56:19;11.95;;;8.85;;
68718;SDS011;55696;52.138;5.444;2023-09-08T00:58:47;15.60;;;9.98;;
68718;SDS011;55696;52.138;5.444;2023-09-08T01:01:14;13.80;;;9.20;;
68718;SDS011;55696;52.138;5.444;2023-09-08T01:03:40;16.08;;;10.13;;
68718;SDS011;55696;52.138;5.444;2023-09-08T01:06:08;12.37;;;9.00;;
68718;SDS011;55696;52.138;5.444;2023-09-08T01:08:35;13.68;;;9.68;;
68718;SDS011;55696;52.138;5.444;2023-09-08T01:11:03;17.08;;;9.90;;
68718;SDS011;55696;52.138;5.444;2023-09-08T01:13:30;15.60;;;10.75;;
68718;SDS011;55696;52.138;5.444;2023-09-08T01:15:57;14.77;;;10.18;;
68718;SDS011;55696;52.138;5.444;2023-09-08T01:18:24;12.83;;;9.77;;
68718;SDS011;55696;52.138;5.444;2023-09-08T01:21:03;14.43;;;9.48;;
68718;SDS011;55696;52.138;5.444;2023-09-08T01:26:17;14.30;;;9.60;;
68718;SDS011;55696;52.138;5.444;2023-09-08T01:28:49;16.45;;;10.30;;
68718;SDS011;55696;52.138;5.444;2023-09-08T01:31:17;15.50;;;11.60;;
68718;SDS011;55696;52.138;5.444;2023-09-08T01:33:45;15.35;;;10.35;;
68718;SDS011;55696;52.138;5.444;2023-09-08T01:36:12;13.70;;;9.52;;
68718;SDS011;55696;52.138;5.444;2023-09-08T01:38:44;16.02;;;10.40;;
68718;SDS011;55696;52.138;5.444;2023-09-08T01:41:11;15.95;;;9.32;;
68718;SDS011;55696;52.138;5.444;2023-09-08T01:43:38;15.60;;;10.77;;
68718;SDS011;55696;52.138;5.444;2023-09-08T01:46:05;12.80;;;9.73;;
68718;SDS011;55696;52.138;5.444;2023-09-08T01:48:32;17.95;;;10.10;;
68718;SDS011;55696;52.138;5.444;2023-09-08T01:51:00;16.52;;;11.05;;
68718;SDS011;55696;52.138;5.444;2023-09-08T01:53:27;17.00;;;10.57;;
68718;SDS011;55696;52.138;5.444;2023-09-08T01:55:54;13.67;;;9.90;;
68718;SDS011;55696;52.138;5.444;2023-09-08T01:58:21;16.50;;;11.70;;
68718;SDS011;55696;52.138;5.444;2023-09-08T02:00:49;16.20;;;11.43;;
68718;SDS011;55696;52.138;5.444;2023-09-08T02:03:17;15.88;;;10.77;;
68718;SDS011;55696;52.138;5.444;2023-09-08T02:05:44;15.15;;;11.73;;
68718;SDS011;55696;52.138;5.444;2023-09-08T02:08:12;18.30;;;11.77;;
68718;SDS011;55696;52.138;5.444;2023-09-08T02:10:39;15.73;;;11.98;;
68718;SDS011;55696;52.138;5.444;2023-09-08T02:13:07;15.85;;;10.98;;
68718;SDS011;55696;52.138;5.444;2023-09-08T02:15:37;15.45;;;11.15;;
68718;SDS011;55696;52.138;5.444;2023-09-08T02:18:04;16.05;;;11.90;;
68718;SDS011;55696;52.138;5.444;2023-09-08T02:20:32;16.10;;;11.50;;
68718;SDS011;55696;52.138;5.444;2023-09-08T02:23:04;14.52;;;10.25;;
68718;SDS011;55696;52.138;5.444;2023-09-08T02:25:33;17.23;;;12.32;;
68718;SDS011;55696;52.138;5.444;2023-09-08T02:28:00;14.88;;;11.02;;
68718;SDS011;55696;52.138;5.444;2023-09-08T02:30:27;18.30;;;12.02;;
68718;SDS011;55696;52.138;5.444;2023-09-08T02:32:55;15.73;;;11.80;;
68718;SDS011;55696;52.138;5.444;2023-09-08T02:35:23;17.13;;;11.65;;
68718;SDS011;55696;52.138;5.444;2023-09-08T02:37:53;17.80;;;12.50;;
68718;SDS011;55696;52.138;5.444;2023-09-08T02:40:20;21.88;;;12.13;;
68718;SDS011;55696;52.138;5.444;2023-09-08T02:42:48;16.23;;;11.93;;
68718;SDS011;55696;52.138;5.444;2023-09-08T02:45:16;19.93;;;11.77;;
68718;SDS011;55696;52.138;5.444;2023-09-08T02:47:43;18.30;;;11.40;;
68718;SDS011;55696;52.138;5.444;2023-09-08T02:50:09;18.35;;;13.52;;
68718;SDS011;55696;52.138;5.444;2023-09-08T02:52:36;17.33;;;11.52;;
68718;SDS011;55696;52.138;5.444;2023-09-08T02:55:03;17.60;;;12.55;;
68718;SDS011;55696;52.138;5.444;2023-09-08T02:57:30;27.03;;;11.77;;
68718;SDS011;55696;52.138;5.444;2023-09-08T02:59:57;17.83;;;11.88;;
68718;SDS011;55696;52.138;5.444;2023-09-08T03:02:24;21.05;;;12.45;;
68718;SDS011;55696;52.138;5.444;2023-09-08T03:04:52;20.13;;;12.55;;
68718;SDS011;55696;52.138;5.444;2023-09-08T03:07:20;18.73;;;13.23;;
68718;SDS011;55696;52.138;5.444;2023-09-08T03:09:48;22.63;;;13.70;;
68718;SDS011;55696;52.138;5.444;2023-09-08T03:12:14;21.42;;;13.93;;
68718;SDS011;55696;52.138;5.444;2023-09-08T03:14:42;18.20;;;12.52;;
68718;SDS011;55696;52.138;5.444;2023-09-08T03:17:09;19.00;;;14.13;;
68718;SDS011;55696;52.138;5.444;2023-09-08T03:19:37;20.15;;;13.40;;
68718;SDS011;55696;52.138;5.444;2023-09-08T03:22:05;20.37;;;14.03;;
68718;SDS011;55696;52.138;5.444;2023-09-08T03:24:32;25.85;;;14.35;;
68718;SDS011;55696;52.138;5.444;2023-09-08T03:26:59;18.17;;;12.80;;
68718;SDS011;55696;52.138;5.444;2023-09-08T03:29:27;21.73;;;13.55;;
68718;SDS011;55696;52.138;5.444;2023-09-08T03:31:54;26.02;;;13.98;;
68718;SDS011;55696;52.138;5.444;2023-09-08T03:34:22;19.63;;;13.87;;
68718;SDS011;55696;52.138;5.444;2023-09-08T03:36:49;19.42;;;12.98;;
68718;SDS011;55696;52.138;5.444;2023-09-08T03:39:19;20.83;;;14.38;;
68718;SDS011;55696;52.138;5.444;2023-09-08T03:41:46;20.02;;;13.82;;
68718;SDS011;55696;52.138;5.444;2023-09-08T03:44:13;21.67;;;14.45;;
68718;SDS011;55696;52.138;5.444;2023-09-08T03:46:40;23.30;;;15.40;;
68718;SDS011;55696;52.138;5.444;2023-09-08T03:49:07;19.00;;;13.15;;
68718;SDS011;55696;52.138;5.444;2023-09-08T03:51:34;19.20;;;12.98;;
68718;SDS011;55696;52.138;5.444;2023-09-08T03:54:01;24.13;;;13.20;;
68718;SDS011;55696;52.138;5.444;2023-09-08T03:56:29;19.88;;;13.40;;
68718;SDS011;55696;52.138;5.444;2023-09-08T03:58:56;21.03;;;13.10;;
68718;SDS011;55696;52.138;5.444;2023-09-08T04:01:23;18.45;;;13.23;;
68718;SDS011;55696;52.138;5.444;2023-09-08T04:03:50;21.63;;;15.25;;
68718;SDS011;55696;52.138;5.444;2023-09-08T04:06:17;19.95;;;13.70;;
68718;SDS011;55696;52.138;5.444;2023-09-08T04:08:44;19.55;;;13.60;;
68718;SDS011;55696;52.138;5.444;2023-09-08T04:11:11;20.90;;;13.77;;
68718;SDS011;55696;52.138;5.444;2023-09-08T04:13:38;18.95;;;13.25;;
68718;SDS011;55696;52.138;5.444;2023-09-08T04:16:05;23.88;;;15.07;;
68718;SDS011;55696;52.138;5.444;2023-09-08T04:18:32;19.80;;;13.30;;
68718;SDS011;55696;52.138;5.444;2023-09-08T04:20:59;20.40;;;13.55;;
68718;SDS011;55696;52.138;5.444;2023-09-08T04:23:26;20.13;;;12.63;;
68718;SDS011;55696;52.138;5.444;2023-09-08T04:25:53;20.38;;;13.40;;
68718;SDS011;55696;52.138;5.444;2023-09-08T04:28:20;22.90;;;15.10;;
68718;SDS011;55696;52.138;5.444;2023-09-08T04:30:47;20.67;;;13.40;;
68718;SDS011;55696;52.138;5.444;2023-09-08T04:33:14;22.05;;;14.57;;
68718;SDS011;55696;52.138;5.444;2023-09-08T04:35:41;21.30;;;14.53;;
68718;SDS011;55696;52.138;5.444;2023-09-08T04:38:08;19.98;;;14.40;;
68718;SDS011;55696;52.138;5.444;2023-09-08T04:40:35;20.83;;;14.70;;
68718;SDS011;55696;52.138;5.444;2023-09-08T04:43:02;26.00;;;13.25;;
68718;SDS011;55696;52.138;5.444;2023-09-08T04:45:30;18.77;;;13.25;;
68718;SDS011;55696;52.138;5.444;2023-09-08T04:47:58;22.57;;;14.53;;
68718;SDS011;55696;52.138;5.444;2023-09-08T04:50:25;18.13;;;11.77;;
68718;SDS011;55696;52.138;5.444;2023-09-08T04:52:52;20.55;;;13.23;;
68718;SDS011;55696;52.138;5.444;2023-09-08T04:55:19;20.40;;;13.52;;
68718;SDS011;55696;52.138;5.444;2023-09-08T04:57:46;19.35;;;13.25;;
68718;SDS011;55696;52.138;5.444;2023-09-08T05:00:14;19.37;;;13.33;;
68718;SDS011;55696;52.138;5.444;2023-09-08T05:02:42;24.52;;;14.23;;
68718;SDS011;55696;52.138;5.444;2023-09-08T05:05:09;22.17;;;13.88;;
68718;SDS011;55696;52.138;5.444;2023-09-08T05:07:36;21.30;;;13.68;;
68718;SDS011;55696;52.138;5.444;2023-09-08T05:10:04;21.08;;;15.07;;
68718;SDS011;55696;52.138;5.444;2023-09-08T05:12:34;22.73;;;13.83;;
68718;SDS011;55696;52.138;5.444;2023-09-08T05:15:01;19.55;;;13.35;;
68718;SDS011;55696;52.138;5.444;2023-09-08T05:17:36;20.08;;;14.00;;
68718;SDS011;55696;52.138;5.444;2023-09-08T05:20:04;21.75;;;14.98;;
68718;SDS011;55696;52.138;5.444;2023-09-08T05:22:31;18.35;;;13.10;;
68718;SDS011;55696;52.138;5.444;2023-09-08T05:24:58;21.70;;;13.73;;
68718;SDS011;55696;52.138;5.444;2023-09-08T05:27:25;22.35;;;13.77;;
68718;SDS011;55696;52.138;5.444;2023-09-08T05:29:52;26.23;;;14.02;;
68718;SDS011;55696;52.138;5.444;2023-09-08T05:32:19;22.00;;;14.05;;
68718;SDS011;55696;52.138;5.444;2023-09-08T05:34:47;17.00;;;12.65;;
68718;SDS011;55696;52.138;5.444;2023-09-08T05:37:14;18.63;;;12.50;;
68718;SDS011;55696;52.138;5.444;2023-09-08T05:39:42;25.13;;;14.23;;
68718;SDS011;55696;52.138;5.444;2023-09-08T05:42:09;19.92;;;14.02;;
68718;SDS011;55696;52.138;5.444;2023-09-08T05:44:38;19.27;;;12.77;;
68718;SDS011;55696;52.138;5.444;2023-09-08T05:47:05;20.80;;;13.73;;
68718;SDS011;55696;52.138;5.444;2023-09-08T05:49:32;22.80;;;13.00;;
68718;SDS011;55696;52.138;5.444;2023-09-08T05:52:02;19.98;;;12.40;;
68718;SDS011;55696;52.138;5.444;2023-09-08T05:54:30;21.08;;;14.25;;
68718;SDS011;55696;52.138;5.444;2023-09-08T05:56:58;16.88;;;11.93;;
68718;SDS011;55696;52.138;5.444;2023-09-08T05:59:25;23.23;;;12.85;;
68718;SDS011;55696;52.138;5.444;2023-09-08T06:01:52;18.40;;;12.07;;
68718;SDS011;55696;52.138;5.444;2023-09-08T06:04:18;18.65;;;12.50;;
68718;SDS011;55696;52.138;5.444;2023-09-08T06:06:46;16.50;;;12.05;;
68718;SDS011;55696;52.138;5.444;2023-09-08T06:09:14;18.35;;;12.20;;
68718;SDS011;55696;52.138;5.444;2023-09-08T06:11:42;29.95;;;11.95;;
68718;SDS011;55696;52.138;5.444;2023-09-08T06:14:10;21.10;;;13.57;;
68718;SDS011;55696;52.138;5.444;2023-09-08T06:16:39;18.75;;;12.00;;
68718;SDS011;55696;52.138;5.444;2023-09-08T06:19:07;22.58;;;13.32;;
68718;SDS011;55696;52.138;5.444;2023-09-08T06:21:34;19.02;;;12.00;;
68718;SDS011;55696;52.138;5.444;2023-09-08T06:24:01;18.15;;;11.88;;
68718;SDS011;55696;52.138;5.444;2023-09-08T06:26:28;18.70;;;12.77;;
68718;SDS011;55696;52.138;5.444;2023-09-08T06:28:56;18.05;;;11.73;;
68718;SDS011;55696;52.138;5.444;2023-09-08T06:31:23;21.17;;;12.68;;
68718;SDS011;55696;52.138;5.444;2023-09-08T06:33:50;19.45;;;12.70;;
68718;SDS011;55696;52.138;5.444;2023-09-08T06:36:19;16.08;;;11.20;;
68718;SDS011;55696;52.138;5.444;2023-09-08T06:38:46;19.03;;;12.37;;
68718;SDS011;55696;52.138;5.444;2023-09-08T06:41:13;15.70;;;11.35;;
68718;SDS011;55696;52.138;5.444;2023-09-08T06:43:41;14.82;;;11.30;;
68718;SDS011;55696;52.138;5.444;2023-09-08T06:46:14;16.50;;;11.68;;
68718;SDS011;55696;52.138;5.444;2023-09-08T06:48:41;19.83;;;12.23;;
68718;SDS011;55696;52.138;5.444;2023-09-08T06:51:08;17.83;;;12.07;;
68718;SDS011;55696;52.138;5.444;2023-09-08T06:53:37;15.48;;;11.13;;
68718;SDS011;55696;52.138;5.444;2023-09-08T06:56:04;18.33;;;11.80;;
68718;SDS011;55696;52.138;5.444;2023-09-08T06:58:32;19.85;;;11.38;;
68718;SDS011;55696;52.138;5.444;2023-09-08T07:01:00;16.92;;;11.57;;
68718;SDS011;55696;52.138;5.444;2023-09-08T07:03:27;16.93;;;11.87;;
68718;SDS011;55696;52.138;5.444;2023-09-08T07:05:55;18.45;;;11.45;;
68718;SDS011;55696;52.138;5.444;2023-09-08T07:08:22;21.80;;;13.30;;
68718;SDS011;55696;52.138;5.444;2023-09-08T07:10:51;15.57;;;10.80;;
68718;SDS011;55696;52.138;5.444;2023-09-08T07:13:20;22.98;;;12.30;;
68718;SDS011;55696;52.138;5.444;2023-09-08T07:15:47;19.73;;;12.53;;
68718;SDS011;55696;52.138;5.444;2023-09-08T07:18:14;17.45;;;11.00;;
68718;SDS011;55696;52.138;5.444;2023-09-08T07:20:45;20.38;;;11.80;;
68718;SDS011;55696;52.138;5.444;2023-09-08T07:23:17;18.58;;;11.82;;
68718;SDS011;55696;52.138;5.444;2023-09-08T07:25:46;16.63;;;11.65;;
68718;SDS011;55696;52.138;5.444;2023-09-08T07:28:14;20.07;;;12.57;;
68718;SDS011;55696;52.138;5.444;2023-09-08T07:30:42;19.33;;;11.90;;
68718;SDS011;55696;52.138;5.444;2023-09-08T07:33:10;17.38;;;10.95;;
68718;SDS011;55696;52.138;5.444;2023-09-08T07:35:38;19.25;;;12.10;;
68718;SDS011;55696;52.138;5.444;2023-09-08T07:38:06;17.33;;;11.07;;
68718;SDS011;55696;52.138;5.444;2023-09-08T07:40:33;17.60;;;11.63;;
68718;SDS011;55696;52.138;5.444;2023-09-08T07:43:01;18.58;;;12.00;;
68718;SDS011;55696;52.138;5.444;2023-09-08T07:45:28;18.30;;;11.40;;
68718;SDS011;55696;52.138;5.444;2023-09-08T07:47:55;19.33;;;12.25;;
68718;SDS011;55696;52.138;5.444;2023-09-08T07:50:26;17.17;;;11.45;;
68718;SDS011;55696;52.138;5.444;2023-09-08T07:52:55;16.43;;;11.67;;
68718;SDS011;55696;52.138;5.444;2023-09-08T07:55:22;15.20;;;8.98;;
68718;SDS011;55696;52.138;5.444;2023-09-08T07:57:53;18.58;;;11.30;;
68718;SDS011;55696;52.138;5.444;2023-09-08T08:00:20;15.95;;;10.05;;
68718;SDS011;55696;52.138;5.444;2023-09-08T08:02:48;17.13;;;11.02;;
68718;SDS011;55696;52.138;5.444;2023-09-08T08:05:16;14.90;;;10.07;;
68718;SDS011;55696;52.138;5.444;2023-09-08T08:07:43;20.23;;;10.50;;
68718;SDS011;55696;52.138;5.444;2023-09-08T08:10:11;14.70;;;10.75;;
68718;SDS011;55696;52.138;5.444;2023-09-08T08:12:39;15.63;;;10.80;;
68718;SDS011;55696;52.138;5.444;2023-09-08T08:15:07;16.33;;;11.77;;
68718;SDS011;55696;52.138;5.444;2023-09-08T08:17:37;15.53;;;11.00;;
68718;SDS011;55696;52.138;5.444;2023-09-08T08:20:05;18.17;;;10.70;;
68718;SDS011;55696;52.138;5.444;2023-09-08T08:22:35;16.23;;;11.50;;
68718;SDS011;55696;52.138;5.444;2023-09-08T08:25:02;22.13;;;12.20;;
68718;SDS011;55696;52.138;5.444;2023-09-08T08:27:30;17.70;;;11.93;;
68718;SDS011;55696;52.138;5.444;2023-09-08T08:29:58;16.27;;;11.33;;
68718;SDS011;55696;52.138;5.444;2023-09-08T08:32:27;17.05;;;11.57;;
68718;SDS011;55696;52.138;5.444;2023-09-08T08:34:55;17.08;;;11.27;;
68718;SDS011;55696;52.138;5.444;2023-09-08T08:37:23;15.48;;;9.95;;
68718;SDS011;55696;52.138;5.444;2023-09-08T08:39:50;16.92;;;12.32;;
68718;SDS011;55696;52.138;5.444;2023-09-08T08:42:17;17.67;;;9.97;;
68718;SDS011;55696;52.138;5.444;2023-09-08T08:44:46;16.27;;;11.07;;
68718;SDS011;55696;52.138;5.444;2023-09-08T08:47:13;16.90;;;12.00;;
68718;SDS011;55696;52.138;5.444;2023-09-08T08:49:43;17.58;;;11.10;;
68718;SDS011;55696;52.138;5.444;2023-09-08T08:52:13;15.82;;;10.75;;
68718;SDS011;55696;52.138;5.444;2023-09-08T08:54:41;18.20;;;10.30;;
68718;SDS011;55696;52.138;5.444;2023-09-08T08:57:09;13.20;;;9.85;;
68718;SDS011;55696;52.138;5.444;2023-09-08T08:59:37;16.50;;;11.07;;
68718;SDS011;55696;52.138;5.444;2023-09-08T09:02:04;15.88;;;10.10;;
68718;SDS011;55696;52.138;5.444;2023-09-08T09:04:32;13.25;;;9.43;;
68718;SDS011;55696;52.138;5.444;2023-09-08T09:06:59;13.77;;;9.50;;
68718;SDS011;55696;52.138;5.444;2023-09-08T09:09:26;13.45;;;9.38;;
68718;SDS011;55696;52.138;5.444;2023-09-08T09:11:54;18.00;;;9.88;;
68718;SDS011;55696;52.138;5.444;2023-09-08T09:14:21;13.95;;;9.43;;
68718;SDS011;55696;52.138;5.444;2023-09-08T09:16:49;14.25;;;10.27;;
68718;SDS011;55696;52.138;5.444;2023-09-08T09:19:18;13.93;;;9.53;;
68718;SDS011;55696;52.138;5.444;2023-09-08T09:21:54;15.65;;;10.10;;
68718;SDS011;55696;52.138;5.444;2023-09-08T09:24:32;10.02;;;8.00;;
68718;SDS011;55696;52.138;5.444;2023-09-08T09:27:10;14.63;;;9.90;;
68718;SDS011;55696;52.138;5.444;2023-09-08T09:29:47;15.65;;;9.23;;
68718;SDS011;55696;52.138;5.444;2023-09-08T09:32:16;15.70;;;9.53;;
68718;SDS011;55696;52.138;5.444;2023-09-08T09:34:50;13.98;;;8.95;;
68718;SDS011;55696;52.138;5.444;2023-09-08T09:37:21;16.08;;;8.98;;
68718;SDS011;55696;52.138;5.444;2023-09-08T09:39:52;12.27;;;9.15;;
68718;SDS011;55696;52.138;5.444;2023-09-08T09:42:20;16.27;;;9.23;;
68718;SDS011;55696;52.138;5.444;2023-09-08T09:44:48;12.73;;;8.73;;
68718;SDS011;55696;52.138;5.444;2023-09-08T09:47:15;12.60;;;8.07;;
68718;SDS011;55696;52.138;5.444;2023-09-08T09:49:43;13.48;;;9.48;;
68718;SDS011;55696;52.138;5.444;2023-09-08T09:52:12;13.45;;;8.80;;
68718;SDS011;55696;52.138;5.444;2023-09-08T09:54:40;14.07;;;9.80;;
68718;SDS011;55696;52.138;5.444;2023-09-08T09:57:12;15.17;;;8.70;;
68718;SDS011;55696;52.138;5.444;2023-09-08T09:59:40;14.60;;;9.93;;
68718;SDS011;55696;52.138;5.444;2023-09-08T10:02:14;15.02;;;9.35;;
68718;SDS011;55696;52.138;5.444;2023-09-08T10:04:41;17.08;;;10.18;;
68718;SDS011;55696;52.138;5.444;2023-09-08T10:07:09;14.82;;;8.85;;
68718;SDS011;55696;52.138;5.444;2023-09-08T10:09:36;13.50;;;9.73;;
68718;SDS011;55696;52.138;5.444;2023-09-08T10:12:04;14.38;;;8.43;;
68718;SDS011;55696;52.138;5.444;2023-09-08T10:14:32;51.33;;;19.52;;
68718;SDS011;55696;52.138;5.444;2023-09-08T10:17:02;17.05;;;9.60;;
68718;SDS011;55696;52.138;5.444;2023-09-08T10:19:32;12.57;;;9.20;;
68718;SDS011;55696;52.138;5.444;2023-09-08T10:22:05;14.40;;;8.53;;
68718;SDS011;55696;52.138;5.444;2023-09-08T10:24:33;12.73;;;8.25;;
68718;SDS011;55696;52.138;5.444;2023-09-08T10:27:04;12.13;;;7.85;;
68718;SDS011;55696;52.138;5.444;2023-09-08T10:29:38;10.45;;;7.25;;
68718;SDS011;55696;52.138;5.444;2023-09-08T10:32:06;10.95;;;7.38;;
68718;SDS011;55696;52.138;5.444;2023-09-08T10:34:35;13.53;;;7.50;;
68718;SDS011;55696;52.138;5.444;2023-09-08T10:37:03;10.48;;;7.15;;
68718;SDS011;55696;52.138;5.444;2023-09-08T10:39:47;10.15;;;6.90;;
68718;SDS011;55696;52.138;5.444;2023-09-08T10:47:14;11.37;;;7.80;;
68718;SDS011;55696;52.138;5.444;2023-09-08T10:49:45;13.13;;;8.13;;
68718;SDS011;55696;52.138;5.444;2023-09-08T10:52:12;13.68;;;7.63;;
68718;SDS011;55696;52.138;5.444;2023-09-08T10:54:49;14.25;;;7.40;;
68718;SDS011;55696;52.138;5.444;2023-09-08T10:57:18;13.73;;;6.93;;
68718;SDS011;55696;52.138;5.444;2023-09-08T10:59:53;13.33;;;6.40;;
68718;SDS011;55696;52.138;5.444;2023-09-08T11:07:36;11.23;;;7.60;;
68718;SDS011;55696;52.138;5.444;2023-09-08T11:10:04;10.75;;;7.22;;
68718;SDS011;55696;52.138;5.444;2023-09-08T11:12:32;14.80;;;7.10;;
68718;SDS011;55696;52.138;5.444;2023-09-08T11:15:01;11.90;;;8.32;;
68718;SDS011;55696;52.138;5.444;2023-09-08T11:17:31;15.90;;;8.38;;
68718;SDS011;55696;52.138;5.444;2023-09-08T11:20:01;15.80;;;8.48;;
68718;SDS011;55696;52.138;5.444;2023-09-08T11:22:35;12.90;;;8.38;;
68718;SDS011;55696;52.138;5.444;2023-09-08T11:25:07;12.93;;;7.40;;
68718;SDS011;55696;52.138;5.444;2023-09-08T11:27:37;12.90;;;7.85;;
68718;SDS011;55696;52.138;5.444;2023-09-08T11:30:06;10.05;;;7.13;;
68718;SDS011;55696;52.138;5.444;2023-09-08T11:32:35;10.25;;;7.25;;
68718;SDS011;55696;52.138;5.444;2023-09-08T11:35:05;8.80;;;6.40;;
68718;SDS011;55696;52.138;5.444;2023-09-08T11:37:37;8.97;;;6.47;;
68718;SDS011;55696;52.138;5.444;2023-09-08T11:40:05;13.30;;;6.80;;
68718;SDS011;55696;52.138;5.444;2023-09-08T11:42:39;17.80;;;7.30;;
68718;SDS011;55696;52.138;5.444;2023-09-08T11:45:11;9.10;;;6.20;;
68718;SDS011;55696;52.138;5.444;2023-09-08T11:47:42;11.57;;;6.30;;
68718;SDS011;55696;52.138;5.444;2023-09-08T11:50:10;11.23;;;6.23;;
68718;SDS011;55696;52.138;5.444;2023-09-08T11:52:44;14.00;;;7.72;;
68718;SDS011;55696;52.138;5.444;2023-09-08T11:55:13;13.30;;;6.95;;
68718;SDS011;55696;52.138;5.444;2023-09-08T11:57:41;11.13;;;6.78;;
68718;SDS011;55696;52.138;5.444;2023-09-08T12:00:10;10.18;;;6.68;;
68718;SDS011;55696;52.138;5.444;2023-09-08T12:02:43;11.67;;;6.30;;
68718;SDS011;55696;52.138;5.444;2023-09-08T12:05:11;10.50;;;6.53;;
68718;SDS011;55696;52.138;5.444;2023-09-08T12:07:39;9.68;;;6.72;;
68718;SDS011;55696;52.138;5.444;2023-09-08T12:10:10;14.27;;;6.50;;
68718;SDS011;55696;52.138;5.444;2023-09-08T12:12:49;12.93;;;6.30;;
68718;SDS011;55696;52.138;5.444;2023-09-08T12:15:37;9.43;;;6.33;;
68718;SDS011;55696;52.138;5.444;2023-09-08T12:18:12;8.95;;;6.40;;
68718;SDS011;55696;52.138;5.444;2023-09-08T12:20:42;8.48;;;5.78;;
68718;SDS011;55696;52.138;5.444;2023-09-08T12:23:19;7.25;;;5.45;;
68718;SDS011;55696;52.138;5.444;2023-09-08T12:25:48;11.13;;;5.68;;
68718;SDS011;55696;52.138;5.444;2023-09-08T12:28:16;10.60;;;6.50;;
68718;SDS011;55696;52.138;5.444;2023-09-08T12:30:45;11.20;;;6.50;;
68718;SDS011;55696;52.138;5.444;2023-09-08T12:33:13;7.60;;;6.03;;
68718;SDS011;55696;52.138;5.444;2023-09-08T12:35:44;9.38;;;5.40;;
68718;SDS011;55696;52.138;5.444;2023-09-08T12:38:12;7.80;;;5.97;;
68718;SDS011;55696;52.138;5.444;2023-09-08T12:40:39;8.77;;;5.70;;
68718;SDS011;55696;52.138;5.444;2023-09-08T12:43:06;8.18;;;5.70;;
68718;SDS011;55696;52.138;5.444;2023-09-08T12:45:54;10.30;;;5.53;;
68718;SDS011;55696;52.138;5.444;2023-09-08T12:48:21;7.30;;;5.10;;
68718;SDS011;55696;52.138;5.444;2023-09-08T12:50:49;9.30;;;5.72;;
68718;SDS011;55696;52.138;5.444;2023-09-08T12:53:16;8.13;;;5.50;;
68718;SDS011;55696;52.138;5.444;2023-09-08T12:55:44;8.63;;;5.60;;
68718;SDS011;55696;52.138;5.444;2023-09-08T12:58:11;12.73;;;6.47;;
68718;SDS011;55696;52.138;5.444;2023-09-08T13:00:38;8.45;;;5.32;;
68718;SDS011;55696;52.138;5.444;2023-09-08T13:03:05;9.75;;;6.50;;
68718;SDS011;55696;52.138;5.444;2023-09-08T13:05:31;10.90;;;5.97;;
68718;SDS011;55696;52.138;5.444;2023-09-08T13:08:01;8.15;;;5.35;;
68718;SDS011;55696;52.138;5.444;2023-09-08T13:10:28;7.65;;;6.07;;
68718;SDS011;55696;52.138;5.444;2023-09-08T13:12:55;10.80;;;5.53;;
68718;SDS011;55696;52.138;5.444;2023-09-08T13:15:22;9.48;;;5.45;;
68718;SDS011;55696;52.138;5.444;2023-09-08T13:17:50;11.13;;;5.77;;
68718;SDS011;55696;52.138;5.444;2023-09-08T13:20:17;8.25;;;5.40;;
68718;SDS011;55696;52.138;5.444;2023-09-08T13:22:44;11.95;;;6.43;;
68718;SDS011;55696;52.138;5.444;2023-09-08T13:25:11;9.77;;;5.72;;
68718;SDS011;55696;52.138;5.444;2023-09-08T13:27:41;9.75;;;5.97;;
68718;SDS011;55696;52.138;5.444;2023-09-08T13:30:11;7.63;;;5.00;;
68718;SDS011;55696;52.138;5.444;2023-09-08T13:32:40;8.20;;;5.50;;
68718;SDS011;55696;52.138;5.444;2023-09-08T13:35:07;8.93;;;5.80;;
68718;SDS011;55696;52.138;5.444;2023-09-08T13:37:34;11.23;;;5.95;;
68718;SDS011;55696;52.138;5.444;2023-09-08T13:40:01;9.68;;;5.72;;
68718;SDS011;55696;52.138;5.444;2023-09-08T13:42:30;10.77;;;5.50;;
68718;SDS011;55696;52.138;5.444;2023-09-08T13:44:58;10.85;;;6.25;;
68718;SDS011;55696;52.138;5.444;2023-09-08T13:47:26;16.52;;;5.75;;
68718;SDS011;55696;52.138;5.444;2023-09-08T13:49:53;6.97;;;5.13;;
68718;SDS011;55696;52.138;5.444;2023-09-08T13:52:23;8.80;;;5.32;;
68718;SDS011;55696;52.138;5.444;2023-09-08T13:54:57;8.03;;;5.20;;
68718;SDS011;55696;52.138;5.444;2023-09-08T13:57:27;9.25;;;5.50;;
68718;SDS011;55696;52.138;5.444;2023-09-08T13:59:54;9.80;;;5.45;;
68718;SDS011;55696;52.138;5.444;2023-09-08T14:02:23;11.20;;;5.40;;
68718;SDS011;55696;52.138;5.444;2023-09-08T14:04:53;9.80;;;5.97;;
68718;SDS011;55696;52.138;5.444;2023-09-08T14:07:23;7.83;;;5.50;;
68718;SDS011;55696;52.138;5.444;2023-09-08T14:10:01;7.38;;;5.75;;
68718;SDS011;55696;52.138;5.444;2023-09-08T14:12:36;10.30;;;5.90;;
68718;SDS011;55696;52.138;5.444;2023-09-08T14:15:04;11.25;;;5.45;;
68718;SDS011;55696;52.138;5.444;2023-09-08T14:17:31;9.68;;;5.75;;
68718;SDS011;55696;52.138;5.444;2023-09-08T14:19:58;14.83;;;6.23;;
68718;SDS011;55696;52.138;5.444;2023-09-08T14:22:25;8.65;;;5.38;;
68718;SDS011;55696;52.138;5.444;2023-09-08T14:24:52;9.23;;;5.78;;
68718;SDS011;55696;52.138;5.444;2023-09-08T14:27:19;13.55;;;6.28;;
68718;SDS011;55696;52.138;5.444;2023-09-08T14:29:46;12.60;;;5.10;;
68718;SDS011;55696;52.138;5.444;2023-09-08T14:32:13;9.93;;;5.30;;
68718;SDS011;55696;52.138;5.444;2023-09-08T14:34:40;8.85;;;4.35;;
68718;SDS011;55696;52.138;5.444;2023-09-08T14:37:07;9.93;;;5.45;;
68718;SDS011;55696;52.138;5.444;2023-09-08T14:39:36;11.75;;;5.35;;
68718;SDS011;55696;52.138;5.444;2023-09-08T14:42:03;7.60;;;4.88;;
68718;SDS011;55696;52.138;5.444;2023-09-08T14:44:31;7.03;;;4.70;;
68718;SDS011;55696;52.138;5.444;2023-09-08T14:46:58;7.55;;;4.68;;
68718;SDS011;55696;52.138;5.444;2023-09-08T14:49:25;7.15;;;4.57;;